Time;durP1;ratioP1;P1;durP2;ratioP2;P2;SDS_P1;SDS_P2;PMS_P1;PMS_P2;Temp;Humidity;BMP_temperature;BMP_pressure;BME280_temperature;BME280_humidity;BME280_pressure;Samples;Min_cycle;Max_cycle;Signal;HPM_P1;HPM_P2
2023/11/03 00:00:15;;;;;;;0.55;0.55;;;;;;;16.13;57.28;97874.91;4397086;32;32383;-91
2023/11/03 00:02:44;;;;;;;0.93;0.85;;;;;;;15.98;57.35;97846.28;4407357;32;32813;-92
2023/11/03 00:05:38;;;;;;;1.62;0.88;;;;;;;15.56;58.67;97858.19;4384533;32;33227;-92
2023/11/03 00:08:46;;;;;;;0.45;0.30;;;;;;;16.12;57.04;97835.97;4394545;32;33782;-92
2023/11/03 00:11:36;;;;;;;0.45;0.45;;;;;;;15.69;58.04;97846.44;4399390;32;32990;-91
2023/11/03 00:14:48;;;;;;;0.40;0.40;;;;;;;15.66;57.99;97838.75;4423746;32;33184;-91
2023/11/03 00:17:17;;;;;;;0.85;0.28;;;;;;;15.61;58.15;97842.63;4402605;32;33893;-94
2023/11/03 00:20:14;;;;;;;0.75;0.60;;;;;;;15.62;57.84;97828.37;4416234;32;34284;-91
2023/11/03 00:23:15;;;;;;;0.28;0.28;;;;;;;15.69;58.02;97830.47;4421929;32;34449;-92
2023/11/03 00:25:51;;;;;;;0.10;0.10;;;;;;;15.88;57.65;97830.38;4399342;32;32939;-92
2023/11/03 00:28:49;;;;;;;1.87;1.67;;;;;;;15.70;57.84;97838.28;4405118;32;33141;-92
2023/11/03 00:31:57;;;;;;;1.08;0.30;;;;;;;15.72;57.74;97838.16;4413761;32;32884;-92
2023/11/03 00:35:08;;;;;;;0.30;0.30;;;;;;;15.77;57.48;97839.41;4389583;32;34817;-92
2023/11/03 00:38:07;;;;;;;0.57;0.20;;;;;;;15.75;57.74;97829.88;4363646;32;32615;-92
2023/11/03 00:41:34;;;;;;;0.17;0.17;;;;;;;15.72;58.24;97823.03;4391397;32;32754;-92
2023/11/03 00:44:25;;;;;;;0.20;0.20;;;;;;;16.20;55.80;97808.59;4394980;32;34008;-92
2023/11/03 00:47:41;;;;;;;1.25;0.37;;;;;;;16.11;56.11;97802.34;4404950;32;33868;-91
2023/11/03 00:50:09;;;;;;;0.20;0.20;;;;;;;16.26;55.65;97807.16;4381776;32;33074;-92
2023/11/03 00:52:59;;;;;;;0.37;0.37;;;;;;;16.40;55.10;97795.97;4388743;32;32919;-91
2023/11/03 00:55:26;;;;;;;1.17;1.08;;;;;;;15.97;56.05;97794.03;4380303;32;33024;-92
2023/11/03 00:57:54;;;;;;;0.57;0.57;;;;;;;16.25;55.16;97782.34;4383995;32;32434;-91
2023/11/03 01:01:23;;;;;;;0.25;0.25;;;;;;;16.13;55.80;97789.72;4372429;32;34564;-91
2023/11/03 01:04:11;;;;;;;0.20;0.17;;;;;;;16.21;55.86;97780.16;4376187;32;33096;-91
2023/11/03 01:06:40;;;;;;;5.82;0.75;;;;;;;16.18;56.34;97775.13;4380914;32;33506;-92
2023/11/03 01:09:11;;;;;;;1.80;0.73;;;;;;;16.32;56.23;97750.63;4356677;32;32586;-92
2023/11/03 01:12:06;;;;;;;0.82;0.82;;;;;;;16.23;56.85;97767.50;4366629;32;32809;-93
2023/11/03 01:15:13;;;;;;;0.13;0.13;;;;;;;16.31;56.37;97754.28;4391373;32;33694;-89
2023/11/03 01:17:41;;;;;;;0.75;0.73;;;;;;;15.81;57.19;97746.81;4404122;32;33738;-90
2023/11/03 01:20:38;;;;;;;0.40;0.22;;;;;;;15.81;57.58;97741.50;4433726;32;34255;-90
2023/11/03 01:23:25;;;;;;;0.10;0.10;;;;;;;15.77;57.55;97748.09;4412154;32;32816;-91
2023/11/03 01:26:03;;;;;;;0.47;0.47;;;;;;;15.87;57.52;97735.56;4425740;32;33882;-91
2023/11/03 01:28:54;;;;;;;0.10;0.10;;;;;;;16.07;56.78;97731.75;4426337;32;32971;-91
2023/11/03 01:31:42;;;;;;;0.40;0.35;;;;;;;16.03;56.75;97741.03;4416692;32;33339;-90
2023/11/03 01:34:10;;;;;;;0.15;0.15;;;;;;;16.05;56.74;97735.56;4423004;32;33086;-90
2023/11/03 01:36:59;;;;;;;2.50;1.42;;;;;;;15.99;56.64;97737.00;4417281;32;33353;-90
2023/11/03 01:39:27;;;;;;;0.65;0.65;;;;;;;16.04;56.53;97737.37;4416399;32;32848;-89
2023/11/03 01:41:54;;;;;;;0.03;0.03;;;;;;;16.04;56.51;97726.72;4422117;32;34074;-90
2023/11/03 01:44:24;;;;;;;1.45;1.35;;;;;;;15.84;56.95;97720.72;4414500;32;32967;-90
2023/11/03 01:46:54;;;;;;;0.20;0.20;;;;;;;15.98;56.19;97727.34;4404511;32;33019;-90
2023/11/03 01:49:22;;;;;;;1.35;0.40;;;;;;;15.62;57.27;97731.78;4408798;32;33632;-90
2023/11/03 01:51:51;;;;;;;2.35;0.70;;;;;;;15.89;56.73;97722.94;4407591;32;34558;-90
2023/11/03 01:54:20;;;;;;;0.60;0.20;;;;;;;16.01;56.30;97721.72;4407130;32;34350;-90
2023/11/03 01:56:48;;;;;;;1.85;1.50;;;;;;;15.97;56.21;97717.69;4405320;32;33869;-90
2023/11/03 01:59:20;;;;;;;0.20;0.20;;;;;;;15.48;57.52;97709.16;4409400;32;33007;-90
2023/11/03 02:01:58;;;;;;;0.22;0.20;;;;;;;15.64;57.13;97710.38;4409673;32;31980;-90
2023/11/03 02:04:28;;;;;;;7.05;0.52;;;;;;;15.82;56.70;97704.06;4392729;32;32702;-89
2023/11/03 02:06:56;;;;;;;1.85;0.85;;;;;;;15.96;56.31;97683.25;4411185;32;32907;-90
2023/11/03 02:09:26;;;;;;;0.30;0.30;;;;;;;15.77;56.68;97676.25;4403747;32;33703;-89
2023/11/03 02:11:54;;;;;;;3.28;1.17;;;;;;;15.70;57.09;97669.84;4405008;32;33005;-90
2023/11/03 02:14:24;;;;;;;2.45;1.30;;;;;;;15.71;56.63;97663.53;4407324;32;32682;-91
2023/11/03 02:17:13;;;;;;;6.18;0.75;;;;;;;15.53;57.54;97669.66;4387285;32;34381;-90
2023/11/03 02:20:06;;;;;;;0.50;0.50;;;;;;;15.04;58.62;97669.06;4390741;32;32578;-92
2023/11/03 02:23:16;;;;;;;2.42;1.12;;;;;;;15.43;57.63;97668.87;4386502;32;32135;-91
2023/11/03 02:25:55;;;;;;;0.52;0.52;;;;;;;15.84;56.47;97666.66;4412228;32;32667;-92
2023/11/03 02:28:46;;;;;;;6.62;2.25;;;;;;;15.34;57.81;97670.63;4420402;32;32867;-89
2023/11/03 02:31:14;;;;;;;1.85;0.52;;;;;;;15.72;56.59;97662.56;4404056;32;32938;-89
2023/11/03 02:33:42;;;;;;;0.20;0.20;;;;;;;15.57;57.08;97668.37;4402300;32;32717;-90
2023/11/03 02:36:10;;;;;;;1.05;0.95;;;;;;;15.64;56.66;97651.84;4404748;32;33901;-89
2023/11/03 02:38:38;;;;;;;0.73;0.47;;;;;;;15.39;57.19;97638.25;4411104;32;34026;-90
2023/11/03 02:41:07;;;;;;;0.43;0.28;;;;;;;15.82;56.10;97631.41;4392212;32;32670;-89
2023/11/03 02:43:35;;;;;;;0.40;0.40;;;;;;;15.66;56.62;97626.75;4411339;32;32568;-89
2023/11/03 02:46:05;;;;;;;2.17;0.35;;;;;;;15.16;58.18;97621.06;4404762;32;32612;-89
2023/11/03 02:48:34;;;;;;;2.10;1.17;;;;;;;15.69;56.46;97620.28;4407703;32;33150;-89
2023/11/03 02:51:03;;;;;;;0.13;0.13;;;;;;;15.75;56.15;97598.38;4396899;32;33917;-89
2023/11/03 02:53:31;;;;;;;0.17;0.17;;;;;;;15.55;56.78;97582.56;4410625;32;33496;-90
2023/11/03 02:56:27;;;;;;;0.13;0.13;;;;;;;15.43;57.32;97578.47;4419228;32;32671;-92
2023/11/03 02:59:08;;;;;;;0.22;0.22;;;;;;;15.08;58.31;97574.78;4426471;32;32831;-93
2023/11/03 03:01:58;;;;;;;0.43;0.43;;;;;;;15.55;57.18;97563.94;4394565;32;32473;-90
2023/11/03 03:04:26;;;;;;;0.85;0.30;;;;;;;15.19;58.00;97556.94;4397143;32;32517;-90
2023/11/03 03:07:10;;;;;;;0.10;0.10;;;;;;;15.52;57.22;97544.78;4401579;32;34311;-91
2023/11/03 03:09:57;;;;;;;0.80;0.80;;;;;;;15.37;57.69;97541.81;4389760;32;32783;-91
2023/11/03 03:12:50;;;;;;;5.03;1.83;;;;;;;15.29;57.83;97539.13;4390239;32;32698;-91
2023/11/03 03:15:18;;;;;;;2.42;1.00;;;;;;;15.04;58.43;97541.50;4388014;32;31811;-91
2023/11/03 03:18:03;;;;;;;1.83;1.05;;;;;;;15.17;58.33;97541.16;4375188;32;33518;-90
2023/11/03 03:20:33;;;;;;;0.20;0.20;;;;;;;15.22;57.86;97540.69;4377293;32;32986;-90
2023/11/03 03:23:02;;;;;;;0.22;0.22;;;;;;;15.14;57.98;97537.94;4364566;32;33544;-90
2023/11/03 03:25:29;;;;;;;0.20;0.20;;;;;;;15.28;57.52;97538.25;4377249;32;32252;-90
2023/11/03 03:28:01;;;;;;;0.03;0.03;;;;;;;15.08;57.89;97542.03;4365017;32;32520;-90
2023/11/03 03:30:30;;;;;;;0.00;0.00;;;;;;;15.59;56.52;97538.72;4327985;32;33487;-90
2023/11/03 03:32:57;;;;;;;0.43;0.43;;;;;;;15.14;57.73;97543.25;4388983;32;32668;-90
2023/11/03 03:35:26;;;;;;;0.30;0.30;;;;;;;14.96;58.21;97538.78;4377115;32;32446;-91
2023/11/03 03:37:55;;;;;;;3.35;0.98;;;;;;;15.25;57.85;97535.09;4389104;32;32884;-91
2023/11/03 03:41:12;;;;;;;0.32;0.32;;;;;;;15.25;57.50;97538.56;4331870;33;34764;-91
2023/11/03 03:44:06;;;;;;;0.85;0.57;;;;;;;14.96;58.48;97528.16;4322936;33;32702;-90
2023/11/03 03:46:38;;;;;;;0.70;0.70;;;;;;;15.36;57.40;97517.06;4308504;33;32367;-91
2023/11/03 03:49:06;;;;;;;0.47;0.47;;;;;;;15.50;57.27;97521.00;4343711;32;32551;-90
2023/11/03 03:51:37;;;;;;;4.70;1.08;;;;;;;15.60;56.71;97519.09;4350159;32;33374;-91
2023/11/03 03:54:26;;;;;;;1.75;1.23;;;;;;;15.53;57.25;97515.41;4352247;32;32982;-90
2023/11/03 03:56:54;;;;;;;0.03;0.03;;;;;;;15.52;57.09;97519.03;4349951;32;32227;-92
2023/11/03 03:59:54;;;;;;;1.62;1.25;;;;;;;15.44;57.41;97511.00;4354996;32;34632;-92
2023/11/03 04:02:49;;;;;;;0.65;0.43;;;;;;;15.14;58.35;97512.19;4355132;32;32972;-90
2023/11/03 04:05:17;;;;;;;0.10;0.08;;;;;;;14.84;59.58;97508.91;4364548;32;32904;-91
2023/11/03 04:08:07;;;;;;;0.75;0.75;;;;;;;15.20;58.60;97502.81;4354674;32;32931;-91
2023/11/03 04:10:36;;;;;;;0.15;0.15;;;;;;;15.45;57.48;97507.34;4352647;32;32457;-90
2023/11/03 04:13:37;;;;;;;3.03;1.05;;;;;;;15.51;57.58;97500.56;4353106;32;34819;-91
2023/11/03 04:16:08;;;;;;;0.88;0.57;;;;;;;15.45;57.77;97488.72;4337562;32;32780;-91
2023/11/03 04:18:39;;;;;;;0.10;0.10;;;;;;;15.57;57.26;97479.53;4363738;32;32356;-91
2023/11/03 04:21:19;;;;;;;0.32;0.32;;;;;;;15.27;58.08;97469.28;4384747;32;32748;-91
2023/11/03 04:23:47;;;;;;;0.77;0.77;;;;;;;15.06;58.75;97459.81;4381793;32;33948;-90
2023/11/03 04:26:15;;;;;;;2.65;1.27;;;;;;;15.00;59.13;97449.81;4381919;32;32542;-91
2023/11/03 04:29:18;;;;;;;6.07;0.52;;;;;;;15.05;59.03;97452.00;4400169;32;32612;-91
2023/11/03 04:31:46;;;;;;;0.20;0.20;;;;;;;14.71;60.00;97450.00;4395109;32;33143;-91
2023/11/03 04:34:15;;;;;;;0.75;0.43;;;;;;;15.50;57.76;97424.44;4389348;32;32803;-89
2023/11/03 04:36:44;;;;;;;0.68;0.68;;;;;;;15.21;58.60;97435.34;4403759;32;32809;-93
2023/11/03 04:39:38;;;;;;;0.30;0.30;;;;;;;15.30;58.08;97429.94;4408415;32;32517;-93
2023/11/03 04:42:17;;;;;;;0.20;0.20;;;;;;;14.89;59.41;97415.47;4442346;32;32679;-93
2023/11/03 04:45:09;;;;;;;0.20;0.20;;;;;;;15.04;59.26;97398.00;4413683;32;32953;-93
2023/11/03 04:47:49;;;;;;;0.77;0.77;;;;;;;15.08;59.18;97393.22;4403106;32;33609;-93
2023/11/03 04:50:40;;;;;;;0.00;0.00;;;;;;;14.80;59.91;97393.31;4427856;32;32197;-93
2023/11/03 04:53:20;;;;;;;0.00;0.00;;;;;;;14.98;59.58;97389.81;4415024;32;32951;-93
2023/11/03 04:56:02;;;;;;;2.62;0.80;;;;;;;14.91;59.91;97389.59;4428273;32;33327;-92
2023/11/03 04:58:45;;;;;;;0.52;0.50;;;;;;;15.02;59.50;97376.06;4407043;32;33569;-92
2023/11/03 05:01:47;;;;;;;3.05;1.20;;;;;;;15.18;58.76;97361.22;4425897;32;32160;-94
2023/11/03 05:04:26;;;;;;;0.13;0.13;;;;;;;15.08;59.04;97356.84;4428221;32;32700;-92
2023/11/03 05:07:18;;;;;;;0.85;0.47;;;;;;;15.47;58.08;97364.41;4427377;32;33750;-91
2023/11/03 05:09:57;;;;;;;0.57;0.30;;;;;;;15.07;59.39;97371.13;4407132;32;32954;-92
2023/11/03 05:13:00;;;;;;;1.45;0.43;;;;;;;15.14;58.94;97366.00;4379449;32;32271;-93
2023/11/03 05:15:39;;;;;;;0.10;0.10;;;;;;;15.35;58.50;97368.31;4412130;32;32731;-92
2023/11/03 05:18:35;;;;;;;0.45;0.25;;;;;;;15.33;58.48;97375.59;4366105;32;32681;-90
2023/11/03 05:21:46;;;;;;;0.20;0.20;;;;;;;15.21;58.76;97363.59;4341542;33;34869;-89
2023/11/03 05:24:54;;;;;;;0.00;0.00;;;;;;;15.39;58.42;97364.37;4333444;33;33703;-89
2023/11/03 05:27:22;;;;;;;0.25;0.25;;;;;;;15.24;58.60;97365.91;4345388;32;33011;-90
2023/11/03 05:29:50;;;;;;;0.40;0.40;;;;;;;15.26;58.91;97358.63;4330955;33;34014;-90
2023/11/03 05:32:45;;;;;;;0.20;0.20;;;;;;;15.55;57.76;97358.31;4332847;33;34479;-90
2023/11/03 05:35:16;;;;;;;1.00;0.70;;;;;;;15.31;58.73;97340.37;4333263;33;32552;-92
2023/11/03 05:37:59;;;;;;;1.20;0.82;;;;;;;15.60;57.89;97346.19;4355671;32;32653;-92
2023/11/03 05:40:51;;;;;;;7.05;0.90;;;;;;;15.36;58.69;97344.22;4358794;32;32804;-91
2023/11/03 05:43:30;;;;;;;0.10;0.10;;;;;;;15.18;59.12;97345.28;4384073;32;34404;-92
2023/11/03 05:46:25;;;;;;;0.30;0.30;;;;;;;15.10;59.36;97343.41;4392836;32;34017;-93
2023/11/03 05:49:05;;;;;;;0.10;0.10;;;;;;;15.25;59.00;97352.47;4376690;32;32677;-92
2023/11/03 05:52:06;;;;;;;0.20;0.10;;;;;;;15.26;59.16;97342.69;4398503;32;32835;-91
2023/11/03 05:55:02;;;;;;;0.28;0.28;;;;;;;15.36;58.96;97343.41;4403082;32;32490;-93
2023/11/03 05:57:56;;;;;;;0.98;0.45;;;;;;;15.58;57.92;97348.19;4419322;32;32313;-93
2023/11/03 06:00:35;;;;;;;2.95;1.55;;;;;;;15.53;58.37;97350.50;4427541;32;32880;-93
2023/11/03 06:03:30;;;;;;;1.45;0.52;;;;;;;15.34;58.97;97346.22;4433969;32;34498;-92
2023/11/03 06:06:09;;;;;;;0.57;0.57;;;;;;;15.51;58.36;97341.81;4411843;32;33633;-94
2023/11/03 06:08:57;;;;;;;0.28;0.28;;;;;;;16.02;57.00;97318.81;4426072;32;33036;-93
2023/11/03 06:11:42;;;;;;;2.08;1.05;;;;;;;15.85;57.74;97327.72;4423484;32;33755;-93
2023/11/03 06:14:33;;;;;;;0.37;0.37;;;;;;;15.63;58.30;97339.75;4389519;32;33189;-92
2023/11/03 06:17:22;;;;;;;0.30;0.30;;;;;;;15.78;57.78;97347.97;4419779;32;33085;-91
2023/11/03 06:20:13;;;;;;;1.08;0.20;;;;;;;15.73;57.96;97342.31;4407153;32;33389;-93
2023/11/03 06:22:52;;;;;;;1.45;1.08;;;;;;;15.61;58.23;97336.38;4408413;32;32680;-94
2023/11/03 06:25:56;;;;;;;0.10;0.10;;;;;;;15.85;57.76;97339.19;4378114;32;34682;-93
2023/11/03 06:29:05;;;;;;;0.68;0.52;;;;;;;15.41;58.99;97337.62;4357343;32;32734;-93
2023/11/03 06:35:24;;;;;;;2.30;0.62;;;;;;;15.79;58.40;97331.03;4343631;33;99037;-92
2023/11/03 06:38:14;;;;;;;1.10;0.62;;;;;;;15.95;57.46;97338.22;4335750;33;33248;-93
2023/11/03 06:41:03;;;;;;;1.40;1.30;;;;;;;15.76;58.27;97345.50;4335443;33;32486;-93
2023/11/03 06:43:52;;;;;;;0.45;0.45;;;;;;;15.91;57.70;97348.37;4353653;32;32194;-92
2023/11/03 06:47:07;;;;;;;3.10;1.85;;;;;;;16.25;57.09;97350.16;4374492;32;35293;-94
2023/11/03 06:50:05;;;;;;;0.62;0.62;;;;;;;16.20;57.51;97353.31;4387849;32;33033;-94
2023/11/03 06:53:32;;;;;;;0.52;0.52;;;;;;;15.77;59.11;97335.69;4397192;32;34583;-93
2023/11/03 06:56:42;;;;;;;0.28;0.28;;;;;;;16.22;57.67;97334.50;4410213;32;32428;-92
2023/11/03 06:59:11;;;;;;;0.43;0.43;;;;;;;15.29;60.75;97334.41;4405377;32;32697;-92
2023/11/03 07:01:40;;;;;;;0.10;0.10;;;;;;;15.57;60.68;97335.91;4399010;32;32998;-92
2023/11/03 07:04:09;;;;;;;3.35;0.35;;;;;;;15.55;61.02;97339.69;4392369;32;33084;-92
2023/11/03 07:06:37;;;;;;;1.25;1.15;;;;;;;15.71;60.91;97337.12;4404888;32;32227;-92
2023/11/03 07:09:37;;;;;;;0.20;0.20;;;;;;;15.59;61.53;97336.56;4353213;32;34658;-92
2023/11/03 07:12:45;;;;;;;0.75;0.70;;;;;;;15.53;62.00;97339.03;4324711;33;33246;-92
2023/11/03 07:15:34;;;;;;;6.32;1.33;;;;;;;15.62;61.93;97333.59;4336184;33;33335;-92
2023/11/03 07:18:42;;;;;;;0.75;0.65;;;;;;;15.88;61.65;97338.03;4312509;33;32084;-92
2023/11/03 07:21:32;;;;;;;0.47;0.47;;;;;;;15.71;62.22;97321.16;4342293;33;32684;-92
2023/11/03 07:27:34;;;;;;;0.62;0.47;;;;;;;15.40;64.11;97304.88;4354185;32;33878;-90
2023/11/03 07:30:03;;;;;;;0.20;0.20;;;;;;;15.51;63.62;97299.28;4376466;32;33093;-89
2023/11/03 07:32:31;;;;;;;4.55;2.45;;;;;;;15.50;64.23;97297.59;4375677;32;32663;-88
2023/11/03 07:34:59;;;;;;;0.60;0.60;;;;;;;15.65;64.20;97278.41;4375384;32;34161;-88
2023/11/03 07:37:27;;;;;;;0.68;0.47;;;;;;;15.55;64.56;97276.69;4351588;32;32900;-88
2023/11/03 07:39:57;;;;;;;0.70;0.70;;;;;;;15.49;64.75;97258.72;4378530;32;34067;-88
2023/11/03 07:42:24;;;;;;;0.37;0.37;;;;;;;15.53;65.06;97260.06;4379799;32;33123;-88
2023/11/03 07:44:52;;;;;;;0.47;0.35;;;;;;;15.29;65.90;97282.06;4374642;32;33038;-87
2023/11/03 07:47:20;;;;;;;24.58;0.73;;;;;;;15.39;65.83;97287.25;4393513;32;32814;-91
2023/11/03 07:49:49;;;;;;;0.30;0.30;;;;;;;15.15;67.04;97281.81;4399598;32;32574;-91
2023/11/03 07:52:19;;;;;;;0.28;0.20;;;;;;;15.37;66.50;97270.63;4413254;32;32991;-91
2023/11/03 07:54:47;;;;;;;0.55;0.55;;;;;;;15.30;66.59;97251.81;4400591;32;33138;-91
2023/11/03 07:57:16;;;;;;;0.62;0.62;;;;;;;15.27;67.27;97230.03;4412872;32;33890;-91
2023/11/03 07:59:45;;;;;;;1.00;0.50;;;;;;;15.56;66.11;97233.13;4399477;32;32028;-92
2023/11/03 08:02:38;;;;;;;0.68;0.68;;;;;;;15.37;66.99;97231.56;4395668;32;32667;-93
2023/11/03 08:05:30;;;;;;;1.35;1.10;;;;;;;15.35;66.80;97219.44;4407886;32;33740;-93
2023/11/03 08:08:18;;;;;;;0.47;0.47;;;;;;;15.50;66.86;97217.00;4413061;32;32565;-90
2023/11/03 08:10:50;;;;;;;0.50;0.50;;;;;;;15.22;67.74;97211.06;4400363;32;32983;-91
2023/11/03 08:13:21;;;;;;;1.25;0.85;;;;;;;15.06;68.51;97212.66;4401582;32;33643;-89
2023/11/03 08:15:50;;;;;;;5.60;2.22;;;;;;;15.26;68.11;97215.06;4394516;32;33111;-92
2023/11/03 08:18:19;;;;;;;1.37;1.27;;;;;;;15.03;69.03;97207.66;4407247;32;32778;-91
2023/11/03 08:20:47;;;;;;;0.25;0.15;;;;;;;15.22;68.27;97203.09;4405799;32;32435;-90
2023/11/03 08:23:16;;;;;;;0.82;0.82;;;;;;;15.58;67.03;97201.06;4413630;32;32718;-88
2023/11/03 08:25:47;;;;;;;0.53;0.43;;;;;;;15.17;68.77;97208.06;4401646;32;32995;-88
2023/11/03 08:28:20;;;;;;;0.30;0.30;;;;;;;15.01;69.27;97200.84;4392871;32;33708;-89
2023/11/03 08:30:49;;;;;;;2.50;0.90;;;;;;;14.76;70.05;97199.84;4404979;32;33804;-88
2023/11/03 08:33:17;;;;;;;0.35;0.35;;;;;;;14.97;69.50;97210.94;4396416;32;33536;-88
2023/11/03 08:35:45;;;;;;;0.00;0.00;;;;;;;15.16;69.12;97214.38;4408654;32;33976;-88
2023/11/03 08:38:14;;;;;;;0.20;0.20;;;;;;;14.87;70.38;97207.56;4400130;32;32916;-88
2023/11/03 08:40:42;;;;;;;0.28;0.20;;;;;;;15.04;70.10;97214.62;4397628;32;32345;-88
2023/11/03 08:43:10;;;;;;;0.03;0.03;;;;;;;14.96;70.54;97219.09;4409361;32;33055;-85
2023/11/03 08:45:40;;;;;;;3.10;1.20;;;;;;;15.04;69.48;97209.31;4398805;32;33093;-89
2023/11/03 08:48:09;;;;;;;0.20;0.20;;;;;;;15.04;69.96;97211.13;4409700;32;33807;-84
2023/11/03 08:50:37;;;;;;;0.47;0.47;;;;;;;15.31;69.23;97212.75;4392712;32;32542;-84
2023/11/03 08:53:05;;;;;;;1.25;1.15;;;;;;;15.28;69.23;97203.28;4408649;32;32811;-84
2023/11/03 08:55:33;;;;;;;0.80;0.60;;;;;;;15.42;69.22;97177.91;4402939;32;32887;-84
2023/11/03 08:58:02;;;;;;;0.10;0.10;;;;;;;15.02;71.00;97165.28;4399750;32;34243;-84
2023/11/03 09:00:31;;;;;;;0.55;0.40;;;;;;;15.32;69.59;97158.59;4399207;32;33557;-83
2023/11/03 09:02:59;;;;;;;0.68;0.22;;;;;;;15.01;71.54;97148.53;4412351;32;33040;-84
2023/11/03 09:05:27;;;;;;;0.43;0.43;;;;;;;15.14;71.03;97131.28;4433449;32;33921;-84
2023/11/03 09:07:54;;;;;;;0.22;0.22;;;;;;;15.07;71.15;97141.72;4419886;32;32942;-84
2023/11/03 09:10:24;;;;;;;0.10;0.10;;;;;;;14.94;72.23;97136.84;4425555;32;32309;-84
2023/11/03 09:12:53;;;;;;;0.62;0.30;;;;;;;14.69;73.22;97158.97;4425762;32;34406;-84
2023/11/03 09:15:21;;;;;;;0.00;0.00;;;;;;;14.93;72.62;97193.66;4422882;32;33137;-83
2023/11/03 09:17:50;;;;;;;0.80;0.68;;;;;;;14.95;72.81;97233.34;4422112;32;35436;-83
2023/11/03 09:20:19;;;;;;;0.15;0.10;;;;;;;15.40;71.41;97256.19;4423316;32;32290;-84
2023/11/03 09:22:47;;;;;;;0.50;0.28;;;;;;;15.32;71.61;97268.44;4423922;32;33917;-84
2023/11/03 09:25:16;;;;;;;0.15;0.15;;;;;;;15.40;71.79;97286.25;4409435;32;33057;-83
2023/11/03 09:27:44;;;;;;;0.20;0.20;;;;;;;15.46;71.17;97301.56;4434646;32;32742;-84
2023/11/03 09:30:12;;;;;;;2.08;1.25;;;;;;;15.52;71.57;97327.53;4427573;32;32968;-84
2023/11/03 09:32:45;;;;;;;0.90;0.90;;;;;;;15.75;70.81;97338.47;4434275;32;33049;-84
2023/11/03 09:35:13;;;;;;;0.13;0.13;;;;;;;15.88;70.07;97357.50;4432378;32;34122;-85
2023/11/03 09:37:41;;;;;;;2.47;1.02;;;;;;;15.62;71.25;97373.50;4434362;32;34482;-85
2023/11/03 09:40:10;;;;;;;1.17;1.10;;;;;;;15.59;72.01;97376.44;4415122;32;33950;-85
2023/11/03 09:42:38;;;;;;;0.90;0.47;;;;;;;15.72;70.67;97378.72;4432678;32;34572;-85
2023/11/03 09:45:15;;;;;;;1.95;0.93;;;;;;;15.29;71.97;97379.59;4410351;32;33767;-85
2023/11/03 09:47:46;;;;;;;2.53;1.15;;;;;;;15.73;70.82;97383.03;4422419;32;34059;-85
2023/11/03 09:50:14;;;;;;;1.80;1.30;;;;;;;15.40;72.49;97386.47;4408847;32;32652;-87
2023/11/03 09:52:49;;;;;;;0.60;0.55;;;;;;;14.80;74.40;97389.81;4422202;32;34604;-85
2023/11/03 09:55:17;;;;;;;1.08;0.47;;;;;;;14.76;75.19;97388.44;4437040;32;33060;-85
2023/11/03 09:57:49;;;;;;;2.67;1.05;;;;;;;15.03;73.75;97393.66;4422594;32;32803;-85
2023/11/03 10:00:19;;;;;;;0.35;0.35;;;;;;;15.17;73.92;97371.03;4426009;32;33112;-85
2023/11/03 10:02:47;;;;;;;0.75;0.75;;;;;;;14.75;75.76;97354.91;4409726;32;32805;-85
2023/11/03 10:05:18;;;;;;;0.77;0.40;;;;;;;14.93;75.24;97360.22;4413441;32;33662;-85
2023/11/03 10:08:07;;;;;;;0.82;0.68;;;;;;;15.33;73.45;97346.38;4408871;32;33931;-85
2023/11/03 10:10:36;;;;;;;0.50;0.50;;;;;;;15.14;74.55;97333.28;4407083;32;32146;-85
2023/11/03 10:13:05;;;;;;;0.40;0.40;;;;;;;15.29;73.46;97313.13;4414243;32;32720;-89
2023/11/03 10:15:35;;;;;;;0.52;0.52;;;;;;;15.30;73.27;97302.31;4400232;32;33091;-89
2023/11/03 10:18:04;;;;;;;0.20;0.20;;;;;;;15.62;72.04;97275.06;4402759;32;34276;-86
2023/11/03 10:20:32;;;;;;;0.57;0.57;;;;;;;15.95;70.45;97237.09;4392879;32;33261;-85
2023/11/03 10:23:00;;;;;;;0.17;0.17;;;;;;;16.06;70.33;97250.94;4404331;32;32893;-86
2023/11/03 10:25:28;;;;;;;1.60;0.75;;;;;;;16.01;70.63;97245.28;4395642;32;33118;-86
2023/11/03 10:27:56;;;;;;;0.52;0.52;;;;;;;16.45;69.17;97213.03;4413389;32;34291;-86
2023/11/03 10:30:25;;;;;;;0.37;0.37;;;;;;;16.38;68.99;97217.38;4413507;32;33975;-86
2023/11/03 10:32:54;;;;;;;0.88;0.75;;;;;;;16.11;70.28;97222.00;4399871;32;32863;-86
2023/11/03 10:35:22;;;;;;;0.75;0.75;;;;;;;16.32;69.38;97218.84;4394408;32;32115;-86
2023/11/03 10:37:52;;;;;;;0.37;0.37;;;;;;;15.99;70.83;97207.31;4403653;32;33825;-86
2023/11/03 10:40:20;;;;;;;3.10;1.87;;;;;;;16.36;69.48;97171.41;4413415;32;32596;-86
2023/11/03 10:42:50;;;;;;;0.13;0.13;;;;;;;16.11;69.72;97174.09;4401968;32;33146;-86
2023/11/03 10:45:56;;;;;;;0.70;0.68;;;;;;;15.84;71.46;97198.31;4411194;32;33859;-86
2023/11/03 10:48:45;;;;;;;0.43;0.43;;;;;;;15.89;71.35;97180.03;4403550;32;33809;-85
2023/11/03 10:51:32;;;;;;;0.20;0.20;;;;;;;15.58;72.52;97185.94;4398499;32;32425;-86
2023/11/03 10:54:04;;;;;;;0.45;0.45;;;;;;;15.84;71.73;97155.75;4398150;32;33322;-86
2023/11/03 10:56:34;;;;;;;0.20;0.20;;;;;;;15.62;72.74;97179.31;4406674;32;33287;-86
2023/11/03 10:59:22;;;;;;;0.52;0.52;;;;;;;14.99;75.21;97186.88;4398822;32;32771;-86
2023/11/03 11:02:03;;;;;;;0.57;0.57;;;;;;;15.06;74.99;97162.16;4404230;32;33344;-87
2023/11/03 11:04:38;;;;;;;0.88;0.73;;;;;;;15.36;73.79;97138.66;4407699;32;32923;-86
2023/11/03 11:07:14;;;;;;;0.43;0.43;;;;;;;15.50;73.36;97108.78;4424110;32;33607;-86
2023/11/03 11:09:48;;;;;;;2.87;1.23;;;;;;;15.09;74.89;97139.72;4426021;32;34792;-86
2023/11/03 11:12:17;;;;;;;0.65;0.65;;;;;;;14.88;76.24;97105.63;4431108;32;32802;-86
2023/11/03 11:14:45;;;;;;;0.00;0.00;;;;;;;14.71;75.65;97001.12;4409900;32;34064;-86
2023/11/03 11:17:37;;;;;;;0.50;0.40;;;;;;;14.45;76.72;97022.41;4411231;32;33299;-87
2023/11/03 11:20:10;;;;;;;0.28;0.28;;;;;;;14.85;75.57;97040.34;4424708;32;34128;-86
2023/11/03 11:22:45;;;;;;;0.10;0.10;;;;;;;14.89;75.87;97078.06;4413051;32;33344;-86
2023/11/03 11:25:16;;;;;;;0.45;0.45;;;;;;;14.88;75.41;97095.00;4405300;32;32919;-86
2023/11/03 11:27:49;;;;;;;1.23;0.73;;;;;;;15.07;74.85;97076.13;4406538;32;34075;-86
2023/11/03 11:30:19;;;;;;;4.85;0.30;;;;;;;15.24;74.08;97004.38;4404284;32;33451;-86
2023/11/03 11:32:51;;;;;;;0.43;0.43;;;;;;;15.05;74.43;97054.22;4431711;32;33210;-86
2023/11/03 11:35:23;;;;;;;0.08;0.03;;;;;;;14.69;76.89;97111.16;4406237;32;35546;-86
2023/11/03 11:37:51;;;;;;;0.80;0.80;;;;;;;14.84;75.73;97115.72;4404766;32;33502;-86
2023/11/03 11:40:18;;;;;;;0.15;0.15;;;;;;;15.36;73.76;97112.09;4418303;32;33886;-86
2023/11/03 11:42:49;;;;;;;0.80;0.80;;;;;;;15.72;72.44;97119.84;4418528;32;32529;-86
2023/11/03 11:45:18;;;;;;;0.32;0.32;;;;;;;15.88;71.69;97118.00;4418202;32;33493;-86
2023/11/03 11:47:50;;;;;;;1.55;1.45;;;;;;;15.95;71.58;97126.19;4423202;32;33616;-86
2023/11/03 11:50:21;;;;;;;0.10;0.10;;;;;;;15.89;71.90;97137.47;4406794;32;33880;-86
2023/11/03 11:52:49;;;;;;;0.00;0.00;;;;;;;15.94;71.18;97135.13;4417042;32;33332;-86
2023/11/03 11:55:19;;;;;;;6.62;2.15;;;;;;;16.00;71.37;97115.00;4393273;32;33989;-86
2023/11/03 11:58:03;;;;;;;0.10;0.10;;;;;;;16.00;71.23;97113.22;4405044;32;32939;-86
2023/11/03 12:00:37;;;;;;;14.43;0.68;;;;;;;15.96;70.84;97133.16;4413432;32;33415;-86
2023/11/03 12:03:09;;;;;;;0.22;0.17;;;;;;;15.76;72.05;97145.09;4412802;32;32469;-85
2023/11/03 12:05:37;;;;;;;0.45;0.45;;;;;;;16.00;70.87;97149.59;4421716;32;34010;-85
2023/11/03 12:08:09;;;;;;;0.00;0.00;;;;;;;15.94;71.42;97172.41;4421919;32;34023;-86
2023/11/03 12:10:47;;;;;;;0.20;0.20;;;;;;;15.81;71.29;97185.38;4428835;32;32903;-85
2023/11/03 12:13:18;;;;;;;0.00;0.00;;;;;;;15.85;71.00;97138.78;4420902;32;33462;-85
2023/11/03 12:15:47;;;;;;;0.62;0.62;;;;;;;15.41;72.65;97160.28;4428305;32;34538;-85
2023/11/03 12:18:16;;;;;;;0.20;0.20;;;;;;;15.98;70.48;97141.78;4412588;32;32981;-85
2023/11/03 12:20:59;;;;;;;0.03;0.03;;;;;;;15.83;72.60;97127.50;4421636;32;33265;-85
2023/11/03 12:23:28;;;;;;;;;;;;;;;16.13;72.83;97172.06;4421520;32;32560;-85
2023/11/03 12:26:01;;;;;;;1.67;1.08;;;;;;;16.10;71.75;97176.91;4421263;32;32745;-85
2023/11/03 12:28:30;;;;;;;3.15;0.52;;;;;;;16.17;71.15;97166.44;4421587;32;33926;-85
2023/11/03 12:31:06;;;;;;;0.00;0.00;;;;;;;16.29;71.01;97154.47;4422263;32;32964;-85
2023/11/03 12:33:59;;;;;;;0.00;0.00;;;;;;;16.47;70.33;97131.09;4429547;32;32243;-85